sensor_id;sensor_type;location;lat;lon;timestamp;P1;durP1;ratioP1;P2;durP2;ratioP2
61709;SDS011;47633;51.494;5.386;2022-10-17T00:01:07;3.88;;;2.20;;
61709;SDS011;47633;51.494;5.386;2022-10-17T00:03:34;3.72;;;1.90;;
61709;SDS011;47633;51.494;5.386;2022-10-17T00:06:04;5.15;;;1.83;;
61709;SDS011;47633;51.494;5.386;2022-10-17T00:08:31;3.45;;;1.83;;
61709;SDS011;47633;51.494;5.386;2022-10-17T00:10:57;4.40;;;1.70;;
61709;SDS011;47633;51.494;5.386;2022-10-17T00:13:24;3.50;;;2.03;;
61709;SDS011;47633;51.494;5.386;2022-10-17T00:15:50;4.90;;;1.70;;
61709;SDS011;47633;51.494;5.386;2022-10-17T00:18:15;3.80;;;2.00;;
61709;SDS011;47633;51.494;5.386;2022-10-17T00:20:40;3.33;;;1.67;;
61709;SDS011;47633;51.494;5.386;2022-10-17T00:23:06;4.53;;;2.17;;
61709;SDS011;47633;51.494;5.386;2022-10-17T00:25:31;3.85;;;1.70;;
61709;SDS011;47633;51.494;5.386;2022-10-17T00:27:56;4.15;;;1.80;;
61709;SDS011;47633;51.494;5.386;2022-10-17T00:30:22;4.13;;;2.10;;
61709;SDS011;47633;51.494;5.386;2022-10-17T00:32:47;4.15;;;2.10;;
61709;SDS011;47633;51.494;5.386;2022-10-17T00:35:12;3.95;;;2.13;;
61709;SDS011;47633;51.494;5.386;2022-10-17T00:37:37;4.43;;;2.08;;
61709;SDS011;47633;51.494;5.386;2022-10-17T00:40:04;5.82;;;1.77;;
61709;SDS011;47633;51.494;5.386;2022-10-17T00:42:30;3.10;;;1.80;;
61709;SDS011;47633;51.494;5.386;2022-10-17T00:45:00;4.40;;;2.17;;
61709;SDS011;47633;51.494;5.386;2022-10-17T00:47:30;4.03;;;2.00;;
61709;SDS011;47633;51.494;5.386;2022-10-17T00:49:57;3.60;;;1.90;;
61709;SDS011;47633;51.494;5.386;2022-10-17T00:52:24;3.80;;;1.90;;
61709;SDS011;47633;51.494;5.386;2022-10-17T00:54:53;3.92;;;2.10;;
61709;SDS011;47633;51.494;5.386;2022-10-17T00:57:22;3.58;;;1.80;;
61709;SDS011;47633;51.494;5.386;2022-10-17T00:59:50;3.47;;;2.13;;
61709;SDS011;47633;51.494;5.386;2022-10-17T01:02:19;3.47;;;1.90;;
61709;SDS011;47633;51.494;5.386;2022-10-17T01:04:46;3.75;;;2.10;;
61709;SDS011;47633;51.494;5.386;2022-10-17T01:07:14;5.45;;;2.00;;
61709;SDS011;47633;51.494;5.386;2022-10-17T01:09:39;5.57;;;2.00;;
61709;SDS011;47633;51.494;5.386;2022-10-17T01:12:10;3.50;;;2.00;;
61709;SDS011;47633;51.494;5.386;2022-10-17T01:20:34;6.40;;;2.03;;
61709;SDS011;47633;51.494;5.386;2022-10-17T01:26:03;4.05;;;1.88;;
61709;SDS011;47633;51.494;5.386;2022-10-17T01:31:37;3.58;;;1.98;;
61709;SDS011;47633;51.494;5.386;2022-10-17T01:34:06;4.03;;;2.00;;
61709;SDS011;47633;51.494;5.386;2022-10-17T01:36:53;5.20;;;2.00;;
61709;SDS011;47633;51.494;5.386;2022-10-17T01:42:02;5.55;;;2.00;;
61709;SDS011;47633;51.494;5.386;2022-10-17T01:47:16;3.70;;;2.00;;
61709;SDS011;47633;51.494;5.386;2022-10-17T01:49:44;4.35;;;2.20;;
61709;SDS011;47633;51.494;5.386;2022-10-17T01:52:13;4.40;;;2.10;;
61709;SDS011;47633;51.494;5.386;2022-10-17T01:54:47;4.95;;;2.15;;
61709;SDS011;47633;51.494;5.386;2022-10-17T01:57:19;4.28;;;2.00;;
61709;SDS011;47633;51.494;5.386;2022-10-17T01:59:55;4.47;;;2.40;;
61709;SDS011;47633;51.494;5.386;2022-10-17T02:02:21;3.60;;;1.95;;
61709;SDS011;47633;51.494;5.386;2022-10-17T02:04:48;5.22;;;2.13;;
61709;SDS011;47633;51.494;5.386;2022-10-17T02:07:16;4.88;;;2.40;;
61709;SDS011;47633;51.494;5.386;2022-10-17T02:09:41;3.53;;;2.00;;
61709;SDS011;47633;51.494;5.386;2022-10-17T02:26:18;4.30;;;2.20;;
61709;SDS011;47633;51.494;5.386;2022-10-17T02:29:23;3.47;;;2.00;;
61709;SDS011;47633;51.494;5.386;2022-10-17T02:31:48;4.45;;;2.20;;
61709;SDS011;47633;51.494;5.386;2022-10-17T02:34:21;3.83;;;2.15;;
61709;SDS011;47633;51.494;5.386;2022-10-17T02:36:51;4.93;;;2.30;;
61709;SDS011;47633;51.494;5.386;2022-10-17T02:39:20;3.75;;;2.10;;
61709;SDS011;47633;51.494;5.386;2022-10-17T02:41:49;3.97;;;2.13;;
61709;SDS011;47633;51.494;5.386;2022-10-17T02:44:16;3.80;;;2.30;;
61709;SDS011;47633;51.494;5.386;2022-10-17T02:46:41;4.72;;;2.30;;
61709;SDS011;47633;51.494;5.386;2022-10-17T02:49:17;4.40;;;2.30;;
61709;SDS011;47633;51.494;5.386;2022-10-17T02:51:56;4.63;;;1.92;;
61709;SDS011;47633;51.494;5.386;2022-10-17T02:54:42;5.45;;;2.33;;
61709;SDS011;47633;51.494;5.386;2022-10-17T02:57:17;3.95;;;2.33;;
61709;SDS011;47633;51.494;5.386;2022-10-17T02:59:49;4.10;;;2.10;;
61709;SDS011;47633;51.494;5.386;2022-10-17T03:02:15;4.05;;;2.40;;
61709;SDS011;47633;51.494;5.386;2022-10-17T03:04:44;4.97;;;2.40;;
61709;SDS011;47633;51.494;5.386;2022-10-17T03:07:10;4.85;;;2.35;;
61709;SDS011;47633;51.494;5.386;2022-10-17T03:09:35;5.07;;;2.22;;
61709;SDS011;47633;51.494;5.386;2022-10-17T03:12:01;3.72;;;2.15;;
61709;SDS011;47633;51.494;5.386;2022-10-17T03:14:26;3.95;;;2.28;;
61709;SDS011;47633;51.494;5.386;2022-10-17T03:16:51;4.47;;;2.20;;
61709;SDS011;47633;51.494;5.386;2022-10-17T03:19:16;4.10;;;2.17;;
61709;SDS011;47633;51.494;5.386;2022-10-17T03:21:42;3.47;;;2.10;;
61709;SDS011;47633;51.494;5.386;2022-10-17T03:24:07;3.57;;;2.03;;
61709;SDS011;47633;51.494;5.386;2022-10-17T03:26:32;6.07;;;4.53;;
61709;SDS011;47633;51.494;5.386;2022-10-17T03:28:58;3.97;;;2.20;;
61709;SDS011;47633;51.494;5.386;2022-10-17T03:31:23;3.92;;;2.17;;
61709;SDS011;47633;51.494;5.386;2022-10-17T03:33:48;4.90;;;2.15;;
61709;SDS011;47633;51.494;5.386;2022-10-17T03:36:15;4.10;;;2.20;;
61709;SDS011;47633;51.494;5.386;2022-10-17T03:38:42;4.00;;;2.10;;
61709;SDS011;47633;51.494;5.386;2022-10-17T03:41:08;4.20;;;3.28;;
61709;SDS011;47633;51.494;5.386;2022-10-17T03:43:34;4.45;;;2.35;;
61709;SDS011;47633;51.494;5.386;2022-10-17T03:45:59;3.42;;;2.20;;
61709;SDS011;47633;51.494;5.386;2022-10-17T03:48:26;3.80;;;2.20;;
61709;SDS011;47633;51.494;5.386;2022-10-17T03:50:59;4.00;;;2.40;;
61709;SDS011;47633;51.494;5.386;2022-10-17T03:53:26;3.47;;;2.20;;
61709;SDS011;47633;51.494;5.386;2022-10-17T03:55:52;4.25;;;2.25;;
61709;SDS011;47633;51.494;5.386;2022-10-17T03:58:17;4.13;;;2.40;;
61709;SDS011;47633;51.494;5.386;2022-10-17T04:00:42;5.30;;;2.00;;
61709;SDS011;47633;51.494;5.386;2022-10-17T04:03:07;5.03;;;2.20;;
61709;SDS011;47633;51.494;5.386;2022-10-17T04:05:33;7.10;;;2.10;;
61709;SDS011;47633;51.494;5.386;2022-10-17T04:07:58;7.63;;;2.40;;
61709;SDS011;47633;51.494;5.386;2022-10-17T04:10:23;4.30;;;2.23;;
61709;SDS011;47633;51.494;5.386;2022-10-17T04:12:48;5.07;;;2.20;;
61709;SDS011;47633;51.494;5.386;2022-10-17T04:15:14;3.87;;;2.07;;
61709;SDS011;47633;51.494;5.386;2022-10-17T04:17:39;4.82;;;2.38;;
61709;SDS011;47633;51.494;5.386;2022-10-17T04:20:04;4.13;;;2.40;;
61709;SDS011;47633;51.494;5.386;2022-10-17T04:22:30;4.68;;;2.42;;
61709;SDS011;47633;51.494;5.386;2022-10-17T04:24:55;4.25;;;2.65;;
61709;SDS011;47633;51.494;5.386;2022-10-17T04:27:20;4.07;;;2.60;;
61709;SDS011;47633;51.494;5.386;2022-10-17T04:29:46;5.43;;;2.53;;
61709;SDS011;47633;51.494;5.386;2022-10-17T04:32:11;4.10;;;2.27;;
61709;SDS011;47633;51.494;5.386;2022-10-17T04:34:36;5.05;;;2.72;;
61709;SDS011;47633;51.494;5.386;2022-10-17T04:37:01;5.50;;;2.47;;
61709;SDS011;47633;51.494;5.386;2022-10-17T04:39:27;4.40;;;2.40;;
61709;SDS011;47633;51.494;5.386;2022-10-17T04:41:53;4.53;;;2.42;;
61709;SDS011;47633;51.494;5.386;2022-10-17T04:44:20;3.60;;;2.17;;
61709;SDS011;47633;51.494;5.386;2022-10-17T04:46:45;4.38;;;2.60;;
61709;SDS011;47633;51.494;5.386;2022-10-17T04:49:11;4.17;;;2.30;;
61709;SDS011;47633;51.494;5.386;2022-10-17T04:51:36;4.60;;;2.50;;
61709;SDS011;47633;51.494;5.386;2022-10-17T04:54:02;4.80;;;2.42;;
61709;SDS011;47633;51.494;5.386;2022-10-17T04:56:27;5.07;;;2.42;;
61709;SDS011;47633;51.494;5.386;2022-10-17T04:58:53;3.97;;;2.17;;
61709;SDS011;47633;51.494;5.386;2022-10-17T05:01:19;4.73;;;2.37;;
61709;SDS011;47633;51.494;5.386;2022-10-17T05:03:46;5.28;;;2.50;;
61709;SDS011;47633;51.494;5.386;2022-10-17T05:06:13;3.40;;;2.00;;
61709;SDS011;47633;51.494;5.386;2022-10-17T05:08:46;4.38;;;2.65;;
61709;SDS011;47633;51.494;5.386;2022-10-17T05:11:18;4.22;;;2.55;;
61709;SDS011;47633;51.494;5.386;2022-10-17T05:13:52;3.90;;;2.25;;
61709;SDS011;47633;51.494;5.386;2022-10-17T05:16:22;5.85;;;2.50;;
61709;SDS011;47633;51.494;5.386;2022-10-17T05:18:49;4.85;;;2.50;;
61709;SDS011;47633;51.494;5.386;2022-10-17T05:21:15;3.78;;;2.40;;
61709;SDS011;47633;51.494;5.386;2022-10-17T05:23:40;4.10;;;2.70;;
61709;SDS011;47633;51.494;5.386;2022-10-17T05:26:06;4.55;;;2.80;;
61709;SDS011;47633;51.494;5.386;2022-10-17T05:28:32;4.93;;;2.70;;
61709;SDS011;47633;51.494;5.386;2022-10-17T05:31:01;4.93;;;2.50;;
61709;SDS011;47633;51.494;5.386;2022-10-17T05:33:27;4.85;;;2.83;;
61709;SDS011;47633;51.494;5.386;2022-10-17T05:35:52;4.60;;;2.40;;
61709;SDS011;47633;51.494;5.386;2022-10-17T05:38:17;5.20;;;2.50;;
61709;SDS011;47633;51.494;5.386;2022-10-17T05:40:42;4.22;;;2.30;;
61709;SDS011;47633;51.494;5.386;2022-10-17T05:43:08;4.37;;;2.60;;
61709;SDS011;47633;51.494;5.386;2022-10-17T05:45:34;5.07;;;2.43;;
61709;SDS011;47633;51.494;5.386;2022-10-17T05:47:59;4.15;;;2.60;;
61709;SDS011;47633;51.494;5.386;2022-10-17T05:50:25;3.80;;;2.35;;
61709;SDS011;47633;51.494;5.386;2022-10-17T05:52:53;3.92;;;2.28;;
61709;SDS011;47633;51.494;5.386;2022-10-17T05:55:19;4.18;;;2.33;;
61709;SDS011;47633;51.494;5.386;2022-10-17T05:57:44;3.85;;;2.45;;
61709;SDS011;47633;51.494;5.386;2022-10-17T06:00:10;4.32;;;2.40;;
61709;SDS011;47633;51.494;5.386;2022-10-17T06:02:36;6.25;;;2.70;;
61709;SDS011;47633;51.494;5.386;2022-10-17T06:05:01;4.63;;;2.63;;
61709;SDS011;47633;51.494;5.386;2022-10-17T06:07:26;4.53;;;2.60;;
61709;SDS011;47633;51.494;5.386;2022-10-17T06:09:52;4.47;;;2.70;;
61709;SDS011;47633;51.494;5.386;2022-10-17T06:12:17;4.35;;;2.60;;
61709;SDS011;47633;51.494;5.386;2022-10-17T06:14:42;5.27;;;2.17;;
61709;SDS011;47633;51.494;5.386;2022-10-17T06:17:07;4.23;;;2.27;;
61709;SDS011;47633;51.494;5.386;2022-10-17T06:19:33;5.28;;;2.58;;
61709;SDS011;47633;51.494;5.386;2022-10-17T06:21:58;4.50;;;2.40;;
61709;SDS011;47633;51.494;5.386;2022-10-17T06:24:23;4.45;;;2.45;;
61709;SDS011;47633;51.494;5.386;2022-10-17T06:26:48;3.88;;;2.55;;
61709;SDS011;47633;51.494;5.386;2022-10-17T06:29:15;4.10;;;2.40;;
61709;SDS011;47633;51.494;5.386;2022-10-17T06:31:40;4.32;;;2.40;;
61709;SDS011;47633;51.494;5.386;2022-10-17T06:34:05;3.97;;;2.30;;
61709;SDS011;47633;51.494;5.386;2022-10-17T06:36:31;4.35;;;2.55;;
61709;SDS011;47633;51.494;5.386;2022-10-17T06:38:56;4.07;;;2.40;;
61709;SDS011;47633;51.494;5.386;2022-10-17T06:41:21;4.97;;;2.67;;
61709;SDS011;47633;51.494;5.386;2022-10-17T06:43:46;3.88;;;2.40;;
61709;SDS011;47633;51.494;5.386;2022-10-17T06:46:12;3.73;;;2.30;;
61709;SDS011;47633;51.494;5.386;2022-10-17T06:48:42;5.30;;;2.50;;
61709;SDS011;47633;51.494;5.386;2022-10-17T06:51:08;4.13;;;2.42;;
61709;SDS011;47633;51.494;5.386;2022-10-17T06:53:35;4.13;;;2.28;;
61709;SDS011;47633;51.494;5.386;2022-10-17T06:56:02;4.75;;;2.42;;
61709;SDS011;47633;51.494;5.386;2022-10-17T06:58:28;4.20;;;2.60;;
61709;SDS011;47633;51.494;5.386;2022-10-17T07:01:02;4.63;;;2.55;;
61709;SDS011;47633;51.494;5.386;2022-10-17T07:03:32;5.90;;;2.65;;
61709;SDS011;47633;51.494;5.386;2022-10-17T07:05:58;5.13;;;2.72;;
61709;SDS011;47633;51.494;5.386;2022-10-17T07:08:23;6.03;;;2.38;;
61709;SDS011;47633;51.494;5.386;2022-10-17T07:10:50;5.60;;;2.58;;
61709;SDS011;47633;51.494;5.386;2022-10-17T07:13:15;5.75;;;2.47;;
61709;SDS011;47633;51.494;5.386;2022-10-17T07:15:41;5.32;;;2.58;;
61709;SDS011;47633;51.494;5.386;2022-10-17T07:18:07;4.20;;;2.33;;
61709;SDS011;47633;51.494;5.386;2022-10-17T07:20:32;4.13;;;2.47;;
61709;SDS011;47633;51.494;5.386;2022-10-17T07:22:58;5.78;;;2.33;;
61709;SDS011;47633;51.494;5.386;2022-10-17T07:25:23;9.52;;;2.78;;
61709;SDS011;47633;51.494;5.386;2022-10-17T07:27:49;5.15;;;2.78;;
61709;SDS011;47633;51.494;5.386;2022-10-17T07:30:15;6.63;;;2.50;;
61709;SDS011;47633;51.494;5.386;2022-10-17T07:32:41;5.75;;;2.40;;
61709;SDS011;47633;51.494;5.386;2022-10-17T07:35:07;6.70;;;2.53;;
61709;SDS011;47633;51.494;5.386;2022-10-17T07:37:33;3.58;;;2.20;;
61709;SDS011;47633;51.494;5.386;2022-10-17T07:39:58;4.00;;;2.30;;
61709;SDS011;47633;51.494;5.386;2022-10-17T07:42:23;5.13;;;2.33;;
61709;SDS011;47633;51.494;5.386;2022-10-17T07:44:48;7.60;;;2.70;;
61709;SDS011;47633;51.494;5.386;2022-10-17T07:47:15;5.60;;;2.40;;
61709;SDS011;47633;51.494;5.386;2022-10-17T07:49:40;3.75;;;2.20;;
61709;SDS011;47633;51.494;5.386;2022-10-17T07:52:10;4.82;;;2.90;;
61709;SDS011;47633;51.494;5.386;2022-10-17T07:54:40;4.18;;;2.55;;
61709;SDS011;47633;51.494;5.386;2022-10-17T07:57:05;6.15;;;2.53;;
61709;SDS011;47633;51.494;5.386;2022-10-17T07:59:32;4.40;;;2.47;;
61709;SDS011;47633;51.494;5.386;2022-10-17T08:01:58;6.32;;;2.40;;
61709;SDS011;47633;51.494;5.386;2022-10-17T08:04:24;3.63;;;2.28;;
61709;SDS011;47633;51.494;5.386;2022-10-17T08:06:50;3.92;;;2.25;;
61709;SDS011;47633;51.494;5.386;2022-10-17T08:09:15;4.43;;;2.53;;
61709;SDS011;47633;51.494;5.386;2022-10-17T08:11:40;7.25;;;2.40;;
61709;SDS011;47633;51.494;5.386;2022-10-17T08:14:08;4.55;;;2.55;;
61709;SDS011;47633;51.494;5.386;2022-10-17T08:16:33;4.20;;;2.63;;
61709;SDS011;47633;51.494;5.386;2022-10-17T08:18:59;4.22;;;2.30;;
61709;SDS011;47633;51.494;5.386;2022-10-17T08:21:24;5.03;;;2.55;;
61709;SDS011;47633;51.494;5.386;2022-10-17T08:23:50;5.10;;;2.58;;
61709;SDS011;47633;51.494;5.386;2022-10-17T08:26:15;4.97;;;2.25;;
61709;SDS011;47633;51.494;5.386;2022-10-17T08:28:41;5.65;;;2.20;;
61709;SDS011;47633;51.494;5.386;2022-10-17T08:31:11;5.22;;;2.10;;
61709;SDS011;47633;51.494;5.386;2022-10-17T08:33:38;4.65;;;2.78;;
61709;SDS011;47633;51.494;5.386;2022-10-17T08:36:05;4.88;;;2.45;;
61709;SDS011;47633;51.494;5.386;2022-10-17T08:38:31;4.85;;;2.30;;
61709;SDS011;47633;51.494;5.386;2022-10-17T08:40:59;4.57;;;2.08;;
61709;SDS011;47633;51.494;5.386;2022-10-17T08:46:09;3.83;;;2.33;;
61709;SDS011;47633;51.494;5.386;2022-10-17T08:48:37;5.55;;;2.53;;
61709;SDS011;47633;51.494;5.386;2022-10-17T08:51:14;3.60;;;2.42;;
61709;SDS011;47633;51.494;5.386;2022-10-17T08:58:44;4.70;;;2.47;;
61709;SDS011;47633;51.494;5.386;2022-10-17T09:01:23;4.38;;;2.20;;
61709;SDS011;47633;51.494;5.386;2022-10-17T09:06:51;4.32;;;2.30;;
61709;SDS011;47633;51.494;5.386;2022-10-17T09:09:36;4.55;;;2.33;;
61709;SDS011;47633;51.494;5.386;2022-10-17T09:15:02;3.90;;;2.40;;
61709;SDS011;47633;51.494;5.386;2022-10-17T09:20:23;4.38;;;2.53;;
61709;SDS011;47633;51.494;5.386;2022-10-17T09:22:56;4.07;;;2.28;;
61709;SDS011;47633;51.494;5.386;2022-10-17T09:25:25;4.68;;;2.50;;
61709;SDS011;47633;51.494;5.386;2022-10-17T09:27:53;5.30;;;2.80;;
61709;SDS011;47633;51.494;5.386;2022-10-17T09:30:36;4.20;;;2.60;;
61709;SDS011;47633;51.494;5.386;2022-10-17T09:33:10;4.55;;;2.38;;
61709;SDS011;47633;51.494;5.386;2022-10-17T09:35:37;5.25;;;2.78;;
61709;SDS011;47633;51.494;5.386;2022-10-17T09:38:03;5.32;;;2.58;;
61709;SDS011;47633;51.494;5.386;2022-10-17T09:40:33;5.15;;;2.60;;
61709;SDS011;47633;51.494;5.386;2022-10-17T09:43:00;5.38;;;2.30;;
61709;SDS011;47633;51.494;5.386;2022-10-17T09:45:29;5.15;;;2.50;;
61709;SDS011;47633;51.494;5.386;2022-10-17T09:50:52;4.88;;;2.55;;
61709;SDS011;47633;51.494;5.386;2022-10-17T09:53:26;4.45;;;2.30;;
61709;SDS011;47633;51.494;5.386;2022-10-17T09:55:57;4.90;;;2.38;;
61709;SDS011;47633;51.494;5.386;2022-10-17T09:58:45;6.80;;;2.70;;
61709;SDS011;47633;51.494;5.386;2022-10-17T10:01:19;6.18;;;2.30;;
61709;SDS011;47633;51.494;5.386;2022-10-17T10:06:38;4.60;;;2.53;;
61709;SDS011;47633;51.494;5.386;2022-10-17T10:09:05;4.82;;;2.30;;
61709;SDS011;47633;51.494;5.386;2022-10-17T10:11:51;4.85;;;2.40;;
61709;SDS011;47633;51.494;5.386;2022-10-17T10:16:57;6.90;;;2.50;;
61709;SDS011;47633;51.494;5.386;2022-10-17T10:21:59;6.03;;;2.60;;
61709;SDS011;47633;51.494;5.386;2022-10-17T10:25:05;5.38;;;2.63;;
61709;SDS011;47633;51.494;5.386;2022-10-17T10:27:41;4.85;;;2.63;;
61709;SDS011;47633;51.494;5.386;2022-10-17T10:30:15;5.88;;;2.78;;
61709;SDS011;47633;51.494;5.386;2022-10-17T10:32:44;6.10;;;2.60;;
61709;SDS011;47633;51.494;5.386;2022-10-17T10:35:18;9.00;;;2.70;;
61709;SDS011;47633;51.494;5.386;2022-10-17T10:37:48;5.32;;;2.60;;
61709;SDS011;47633;51.494;5.386;2022-10-17T10:40:25;7.53;;;2.47;;
61709;SDS011;47633;51.494;5.386;2022-10-17T10:42:58;3.65;;;2.30;;
61709;SDS011;47633;51.494;5.386;2022-10-17T10:45:26;5.05;;;2.20;;
61709;SDS011;47633;51.494;5.386;2022-10-17T10:48:20;6.40;;;2.63;;
61709;SDS011;47633;51.494;5.386;2022-10-17T10:50:47;7.78;;;2.80;;
61709;SDS011;47633;51.494;5.386;2022-10-17T10:58:39;5.30;;;2.25;;
61709;SDS011;47633;51.494;5.386;2022-10-17T11:01:14;5.72;;;2.50;;
61709;SDS011;47633;51.494;5.386;2022-10-17T11:11:53;5.93;;;2.67;;
61709;SDS011;47633;51.494;5.386;2022-10-17T11:14:36;6.30;;;2.38;;
61709;SDS011;47633;51.494;5.386;2022-10-17T11:20:11;5.97;;;2.22;;
61709;SDS011;47633;51.494;5.386;2022-10-17T11:22:45;5.72;;;2.55;;
61709;SDS011;47633;51.494;5.386;2022-10-17T11:25:30;5.50;;;2.20;;
61709;SDS011;47633;51.494;5.386;2022-10-17T11:27:57;6.50;;;2.70;;
61709;SDS011;47633;51.494;5.386;2022-10-17T11:30:27;6.10;;;2.67;;
61709;SDS011;47633;51.494;5.386;2022-10-17T11:32:59;9.63;;;3.78;;
61709;SDS011;47633;51.494;5.386;2022-10-17T11:35:35;8.60;;;3.38;;
61709;SDS011;47633;51.494;5.386;2022-10-17T11:38:09;13.35;;;5.72;;
61709;SDS011;47633;51.494;5.386;2022-10-17T11:40:59;13.73;;;4.82;;
61709;SDS011;47633;51.494;5.386;2022-10-17T11:43:26;11.98;;;4.75;;
61709;SDS011;47633;51.494;5.386;2022-10-17T11:46:05;10.70;;;5.10;;
61709;SDS011;47633;51.494;5.386;2022-10-17T11:48:44;10.20;;;4.57;;
61709;SDS011;47633;51.494;5.386;2022-10-17T11:51:19;10.45;;;4.03;;
61709;SDS011;47633;51.494;5.386;2022-10-17T11:54:07;10.65;;;4.25;;
61709;SDS011;47633;51.494;5.386;2022-10-17T11:56:40;10.88;;;4.20;;
61709;SDS011;47633;51.494;5.386;2022-10-17T11:59:17;8.68;;;3.55;;
61709;SDS011;47633;51.494;5.386;2022-10-17T12:01:56;10.05;;;3.85;;
61709;SDS011;47633;51.494;5.386;2022-10-17T12:12:30;8.88;;;3.45;;
61709;SDS011;47633;51.494;5.386;2022-10-17T12:17:38;9.15;;;3.97;;
61709;SDS011;47633;51.494;5.386;2022-10-17T12:22:47;9.45;;;3.60;;
61709;SDS011;47633;51.494;5.386;2022-10-17T12:25:21;8.10;;;3.20;;
61709;SDS011;47633;51.494;5.386;2022-10-17T12:30:30;8.07;;;3.35;;
61709;SDS011;47633;51.494;5.386;2022-10-17T12:35:36;7.35;;;3.13;;
61709;SDS011;47633;51.494;5.386;2022-10-17T12:38:23;7.07;;;3.15;;
61709;SDS011;47633;51.494;5.386;2022-10-17T12:40:50;7.22;;;3.25;;
61709;SDS011;47633;51.494;5.386;2022-10-17T12:53:43;6.43;;;3.30;;
61709;SDS011;47633;51.494;5.386;2022-10-17T12:56:21;6.65;;;3.00;;
61709;SDS011;47633;51.494;5.386;2022-10-17T12:58:58;7.90;;;3.05;;
61709;SDS011;47633;51.494;5.386;2022-10-17T13:01:28;7.75;;;3.00;;
61709;SDS011;47633;51.494;5.386;2022-10-17T13:03:55;6.35;;;3.05;;
61709;SDS011;47633;51.494;5.386;2022-10-17T13:06:22;5.88;;;3.03;;
61709;SDS011;47633;51.494;5.386;2022-10-17T13:08:52;6.30;;;3.33;;
61709;SDS011;47633;51.494;5.386;2022-10-17T13:11:24;8.05;;;3.38;;
61709;SDS011;47633;51.494;5.386;2022-10-17T13:13:54;8.00;;;2.92;;
61709;SDS011;47633;51.494;5.386;2022-10-17T13:16:27;9.32;;;3.60;;
61709;SDS011;47633;51.494;5.386;2022-10-17T13:19:00;6.65;;;3.20;;
61709;SDS011;47633;51.494;5.386;2022-10-17T13:21:27;8.60;;;3.30;;
61709;SDS011;47633;51.494;5.386;2022-10-17T13:23:52;6.15;;;3.20;;
61709;SDS011;47633;51.494;5.386;2022-10-17T13:26:22;7.25;;;3.08;;
61709;SDS011;47633;51.494;5.386;2022-10-17T13:31:32;5.75;;;3.13;;
61709;SDS011;47633;51.494;5.386;2022-10-17T13:34:00;10.80;;;3.13;;
61709;SDS011;47633;51.494;5.386;2022-10-17T13:36:27;5.30;;;2.95;;
61709;SDS011;47633;51.494;5.386;2022-10-17T13:38:54;5.75;;;3.30;;
61709;SDS011;47633;51.494;5.386;2022-10-17T13:41:23;6.85;;;3.42;;
61709;SDS011;47633;51.494;5.386;2022-10-17T13:43:51;5.85;;;3.00;;
61709;SDS011;47633;51.494;5.386;2022-10-17T13:46:24;8.18;;;3.10;;
61709;SDS011;47633;51.494;5.386;2022-10-17T13:48:54;6.65;;;2.83;;
61709;SDS011;47633;51.494;5.386;2022-10-17T13:51:22;5.95;;;3.10;;
61709;SDS011;47633;51.494;5.386;2022-10-17T13:53:49;8.27;;;3.35;;
61709;SDS011;47633;51.494;5.386;2022-10-17T13:58:49;5.88;;;3.00;;
61709;SDS011;47633;51.494;5.386;2022-10-17T14:01:15;7.65;;;3.47;;
61709;SDS011;47633;51.494;5.386;2022-10-17T14:03:43;7.18;;;3.00;;
61709;SDS011;47633;51.494;5.386;2022-10-17T14:11:29;7.57;;;3.00;;
61709;SDS011;47633;51.494;5.386;2022-10-17T14:13:57;5.70;;;3.00;;
61709;SDS011;47633;51.494;5.386;2022-10-17T14:16:24;5.75;;;2.75;;
61709;SDS011;47633;51.494;5.386;2022-10-17T14:18:52;5.72;;;2.92;;
61709;SDS011;47633;51.494;5.386;2022-10-17T14:21:19;5.82;;;2.83;;
61709;SDS011;47633;51.494;5.386;2022-10-17T14:23:46;5.88;;;2.97;;
61709;SDS011;47633;51.494;5.386;2022-10-17T14:26:21;6.43;;;3.20;;
61709;SDS011;47633;51.494;5.386;2022-10-17T14:28:50;5.28;;;2.67;;
61709;SDS011;47633;51.494;5.386;2022-10-17T14:31:31;7.28;;;2.67;;
61709;SDS011;47633;51.494;5.386;2022-10-17T14:33:57;8.07;;;3.00;;
61709;SDS011;47633;51.494;5.386;2022-10-17T14:36:37;8.93;;;2.60;;
61709;SDS011;47633;51.494;5.386;2022-10-17T14:39:07;6.60;;;3.17;;
61709;SDS011;47633;51.494;5.386;2022-10-17T14:41:43;5.15;;;2.70;;
61709;SDS011;47633;51.494;5.386;2022-10-17T14:46:43;5.55;;;2.90;;
61709;SDS011;47633;51.494;5.386;2022-10-17T14:52:08;4.97;;;2.70;;
61709;SDS011;47633;51.494;5.386;2022-10-17T14:54:48;5.47;;;2.75;;
61709;SDS011;47633;51.494;5.386;2022-10-17T14:57:16;6.80;;;3.05;;
61709;SDS011;47633;51.494;5.386;2022-10-17T15:00:02;6.60;;;3.65;;
61709;SDS011;47633;51.494;5.386;2022-10-17T15:02:28;6.45;;;3.30;;
61709;SDS011;47633;51.494;5.386;2022-10-17T15:04:54;6.57;;;3.22;;
61709;SDS011;47633;51.494;5.386;2022-10-17T15:07:19;4.68;;;2.95;;
61709;SDS011;47633;51.494;5.386;2022-10-17T15:09:46;5.78;;;3.30;;
61709;SDS011;47633;51.494;5.386;2022-10-17T15:12:13;6.20;;;3.17;;
61709;SDS011;47633;51.494;5.386;2022-10-17T15:14:41;7.35;;;3.30;;
61709;SDS011;47633;51.494;5.386;2022-10-17T15:17:16;6.15;;;3.05;;
61709;SDS011;47633;51.494;5.386;2022-10-17T15:19:49;5.30;;;3.08;;
61709;SDS011;47633;51.494;5.386;2022-10-17T15:22:14;9.00;;;3.25;;
61709;SDS011;47633;51.494;5.386;2022-10-17T15:24:40;8.65;;;4.03;;
61709;SDS011;47633;51.494;5.386;2022-10-17T15:27:19;7.07;;;3.58;;
61709;SDS011;47633;51.494;5.386;2022-10-17T15:29:46;6.50;;;3.03;;
61709;SDS011;47633;51.494;5.386;2022-10-17T15:32:13;8.70;;;3.30;;
61709;SDS011;47633;51.494;5.386;2022-10-17T15:34:39;5.40;;;3.15;;
61709;SDS011;47633;51.494;5.386;2022-10-17T15:37:05;5.43;;;3.25;;
61709;SDS011;47633;51.494;5.386;2022-10-17T15:39:38;6.78;;;3.38;;
61709;SDS011;47633;51.494;5.386;2022-10-17T15:42:04;9.45;;;3.35;;
61709;SDS011;47633;51.494;5.386;2022-10-17T15:44:35;7.13;;;3.28;;
61709;SDS011;47633;51.494;5.386;2022-10-17T15:47:00;8.02;;;3.40;;
61709;SDS011;47633;51.494;5.386;2022-10-17T15:49:26;7.28;;;3.90;;
61709;SDS011;47633;51.494;5.386;2022-10-17T15:51:51;6.88;;;3.20;;
61709;SDS011;47633;51.494;5.386;2022-10-17T15:54:16;6.15;;;3.10;;
61709;SDS011;47633;51.494;5.386;2022-10-17T15:56:42;6.00;;;3.17;;
61709;SDS011;47633;51.494;5.386;2022-10-17T15:59:15;7.50;;;3.20;;
61709;SDS011;47633;51.494;5.386;2022-10-17T16:01:43;8.95;;;3.25;;
61709;SDS011;47633;51.494;5.386;2022-10-17T16:04:10;7.05;;;3.40;;
61709;SDS011;47633;51.494;5.386;2022-10-17T16:06:40;6.10;;;3.20;;
61709;SDS011;47633;51.494;5.386;2022-10-17T16:09:06;8.27;;;3.10;;
61709;SDS011;47633;51.494;5.386;2022-10-17T16:11:35;7.38;;;3.30;;
61709;SDS011;47633;51.494;5.386;2022-10-17T16:14:03;7.18;;;3.20;;
61709;SDS011;47633;51.494;5.386;2022-10-17T16:16:30;7.40;;;3.00;;
61709;SDS011;47633;51.494;5.386;2022-10-17T16:18:56;5.90;;;3.17;;
61709;SDS011;47633;51.494;5.386;2022-10-17T16:21:24;6.03;;;3.15;;
61709;SDS011;47633;51.494;5.386;2022-10-17T16:23:51;5.95;;;3.33;;
61709;SDS011;47633;51.494;5.386;2022-10-17T16:26:17;6.70;;;2.90;;
61709;SDS011;47633;51.494;5.386;2022-10-17T16:28:42;6.30;;;2.90;;
61709;SDS011;47633;51.494;5.386;2022-10-17T16:31:21;6.60;;;2.60;;
61709;SDS011;47633;51.494;5.386;2022-10-17T16:33:47;5.55;;;2.50;;
61709;SDS011;47633;51.494;5.386;2022-10-17T16:36:16;6.50;;;2.78;;
61709;SDS011;47633;51.494;5.386;2022-10-17T16:38:41;5.63;;;2.83;;
61709;SDS011;47633;51.494;5.386;2022-10-17T16:41:12;8.15;;;2.90;;
61709;SDS011;47633;51.494;5.386;2022-10-17T16:43:43;5.60;;;2.60;;
61709;SDS011;47633;51.494;5.386;2022-10-17T16:46:08;7.20;;;2.60;;
61709;SDS011;47633;51.494;5.386;2022-10-17T16:48:33;7.57;;;2.50;;
61709;SDS011;47633;51.494;5.386;2022-10-17T16:50:59;5.78;;;2.85;;
61709;SDS011;47633;51.494;5.386;2022-10-17T16:53:26;6.43;;;3.00;;
61709;SDS011;47633;51.494;5.386;2022-10-17T16:55:58;5.63;;;2.60;;
61709;SDS011;47633;51.494;5.386;2022-10-17T16:58:27;8.88;;;2.97;;